sensor_id;sensor_type;location;lat;lon;timestamp;P1;durP1;ratioP1;P2;durP2;ratioP2
36989;SDS011;22898;52.102;5.776;2023-07-20T00:00:17;3.90;;;2.00;;
36989;SDS011;22898;52.102;5.776;2023-07-20T00:02:43;4.63;;;1.80;;
36989;SDS011;22898;52.102;5.776;2023-07-20T00:05:09;1.85;;;1.58;;
36989;SDS011;22898;52.102;5.776;2023-07-20T00:07:34;3.22;;;1.98;;
36989;SDS011;22898;52.102;5.776;2023-07-20T00:10:00;2.22;;;1.77;;
36989;SDS011;22898;52.102;5.776;2023-07-20T00:12:26;1.48;;;1.38;;
36989;SDS011;22898;52.102;5.776;2023-07-20T00:14:51;2.92;;;1.88;;
36989;SDS011;22898;52.102;5.776;2023-07-20T00:17:18;2.25;;;1.80;;
36989;SDS011;22898;52.102;5.776;2023-07-20T00:19:44;2.17;;;1.40;;
36989;SDS011;22898;52.102;5.776;2023-07-20T00:22:10;2.00;;;1.50;;
36989;SDS011;22898;52.102;5.776;2023-07-20T00:24:36;4.18;;;1.90;;
36989;SDS011;22898;52.102;5.776;2023-07-20T00:27:01;2.08;;;1.70;;
36989;SDS011;22898;52.102;5.776;2023-07-20T00:29:27;1.65;;;1.50;;
36989;SDS011;22898;52.102;5.776;2023-07-20T00:31:53;2.17;;;1.77;;
36989;SDS011;22898;52.102;5.776;2023-07-20T00:34:19;2.70;;;1.85;;
36989;SDS011;22898;52.102;5.776;2023-07-20T00:36:44;1.40;;;1.13;;
36989;SDS011;22898;52.102;5.776;2023-07-20T00:39:10;3.80;;;1.42;;
36989;SDS011;22898;52.102;5.776;2023-07-20T00:41:35;2.53;;;1.77;;
36989;SDS011;22898;52.102;5.776;2023-07-20T00:44:01;1.65;;;1.25;;
36989;SDS011;22898;52.102;5.776;2023-07-20T00:46:27;2.42;;;1.60;;
36989;SDS011;22898;52.102;5.776;2023-07-20T00:48:53;2.08;;;1.52;;
36989;SDS011;22898;52.102;5.776;2023-07-20T00:51:20;2.15;;;1.55;;
36989;SDS011;22898;52.102;5.776;2023-07-20T00:53:46;2.10;;;1.05;;
36989;SDS011;22898;52.102;5.776;2023-07-20T00:56:12;2.88;;;1.20;;
36989;SDS011;22898;52.102;5.776;2023-07-20T00:58:37;2.95;;;1.35;;
36989;SDS011;22898;52.102;5.776;2023-07-20T01:01:03;4.00;;;2.00;;
36989;SDS011;22898;52.102;5.776;2023-07-20T01:03:29;2.35;;;1.20;;
36989;SDS011;22898;52.102;5.776;2023-07-20T01:05:56;1.50;;;1.17;;
36989;SDS011;22898;52.102;5.776;2023-07-20T01:13:53;1.80;;;1.20;;
36989;SDS011;22898;52.102;5.776;2023-07-20T01:16:18;1.73;;;1.23;;
36989;SDS011;22898;52.102;5.776;2023-07-20T01:18:44;1.67;;;1.10;;
36989;SDS011;22898;52.102;5.776;2023-07-20T01:21:13;2.15;;;1.38;;
36989;SDS011;22898;52.102;5.776;2023-07-20T01:32:20;1.75;;;1.25;;
36989;SDS011;22898;52.102;5.776;2023-07-20T01:34:49;0.85;;;0.82;;
36989;SDS011;22898;52.102;5.776;2023-07-20T01:37:17;2.28;;;1.33;;
36989;SDS011;22898;52.102;5.776;2023-07-20T01:39:45;1.65;;;1.30;;
36989;SDS011;22898;52.102;5.776;2023-07-20T01:42:11;1.83;;;1.23;;
36989;SDS011;22898;52.102;5.776;2023-07-20T01:44:37;1.50;;;1.25;;
36989;SDS011;22898;52.102;5.776;2023-07-20T01:47:03;2.00;;;1.17;;
36989;SDS011;22898;52.102;5.776;2023-07-20T01:49:29;0.70;;;0.70;;
36989;SDS011;22898;52.102;5.776;2023-07-20T01:51:54;1.35;;;0.80;;
36989;SDS011;22898;52.102;5.776;2023-07-20T01:54:20;1.00;;;0.90;;
36989;SDS011;22898;52.102;5.776;2023-07-20T01:56:46;1.80;;;1.23;;
36989;SDS011;22898;52.102;5.776;2023-07-20T01:59:12;0.80;;;0.80;;
36989;SDS011;22898;52.102;5.776;2023-07-20T02:01:37;2.63;;;1.67;;
36989;SDS011;22898;52.102;5.776;2023-07-20T02:04:03;2.08;;;1.33;;
36989;SDS011;22898;52.102;5.776;2023-07-20T02:06:28;1.17;;;1.05;;
36989;SDS011;22898;52.102;5.776;2023-07-20T02:08:54;1.10;;;0.90;;
36989;SDS011;22898;52.102;5.776;2023-07-20T02:11:19;1.25;;;1.00;;
36989;SDS011;22898;52.102;5.776;2023-07-20T02:13:45;1.60;;;1.08;;
36989;SDS011;22898;52.102;5.776;2023-07-20T02:16:10;1.15;;;1.05;;
36989;SDS011;22898;52.102;5.776;2023-07-20T02:18:36;1.73;;;1.15;;
36989;SDS011;22898;52.102;5.776;2023-07-20T02:21:02;3.00;;;1.50;;
36989;SDS011;22898;52.102;5.776;2023-07-20T02:23:27;1.98;;;1.35;;
36989;SDS011;22898;52.102;5.776;2023-07-20T02:25:53;1.27;;;1.15;;
36989;SDS011;22898;52.102;5.776;2023-07-20T02:28:19;1.05;;;0.88;;
36989;SDS011;22898;52.102;5.776;2023-07-20T02:30:44;0.98;;;0.88;;
36989;SDS011;22898;52.102;5.776;2023-07-20T02:33:10;0.85;;;0.80;;
36989;SDS011;22898;52.102;5.776;2023-07-20T02:35:36;3.33;;;1.17;;
36989;SDS011;22898;52.102;5.776;2023-07-20T02:38:02;1.23;;;1.02;;
36989;SDS011;22898;52.102;5.776;2023-07-20T02:40:28;2.20;;;1.52;;
36989;SDS011;22898;52.102;5.776;2023-07-20T02:42:53;0.77;;;0.77;;
36989;SDS011;22898;52.102;5.776;2023-07-20T02:45:19;1.23;;;1.05;;
36989;SDS011;22898;52.102;5.776;2023-07-20T02:47:44;0.90;;;0.90;;
36989;SDS011;22898;52.102;5.776;2023-07-20T02:50:10;1.70;;;1.08;;
36989;SDS011;22898;52.102;5.776;2023-07-20T02:52:38;0.80;;;0.80;;
36989;SDS011;22898;52.102;5.776;2023-07-20T02:55:04;1.38;;;1.02;;
36989;SDS011;22898;52.102;5.776;2023-07-20T02:57:29;1.10;;;0.80;;
36989;SDS011;22898;52.102;5.776;2023-07-20T02:59:55;1.17;;;1.08;;
36989;SDS011;22898;52.102;5.776;2023-07-20T03:02:21;0.82;;;0.82;;
36989;SDS011;22898;52.102;5.776;2023-07-20T03:04:46;1.15;;;0.90;;
36989;SDS011;22898;52.102;5.776;2023-07-20T03:07:12;2.97;;;1.10;;
36989;SDS011;22898;52.102;5.776;2023-07-20T03:09:37;1.25;;;1.13;;
36989;SDS011;22898;52.102;5.776;2023-07-20T03:12:04;1.25;;;1.02;;
36989;SDS011;22898;52.102;5.776;2023-07-20T03:14:30;1.52;;;1.25;;
36989;SDS011;22898;52.102;5.776;2023-07-20T03:16:56;1.45;;;1.10;;
36989;SDS011;22898;52.102;5.776;2023-07-20T03:19:21;1.92;;;1.30;;
36989;SDS011;22898;52.102;5.776;2023-07-20T03:21:47;1.30;;;1.20;;
36989;SDS011;22898;52.102;5.776;2023-07-20T03:24:13;0.77;;;0.77;;
36989;SDS011;22898;52.102;5.776;2023-07-20T03:26:38;1.23;;;1.02;;
36989;SDS011;22898;52.102;5.776;2023-07-20T03:29:04;1.55;;;1.02;;
36989;SDS011;22898;52.102;5.776;2023-07-20T03:31:30;0.95;;;0.95;;
36989;SDS011;22898;52.102;5.776;2023-07-20T03:33:55;3.00;;;1.00;;
36989;SDS011;22898;52.102;5.776;2023-07-20T03:36:21;1.00;;;0.93;;
36989;SDS011;22898;52.102;5.776;2023-07-20T03:38:47;2.08;;;1.30;;
36989;SDS011;22898;52.102;5.776;2023-07-20T03:41:12;3.95;;;1.17;;
36989;SDS011;22898;52.102;5.776;2023-07-20T03:43:40;1.00;;;0.77;;
36989;SDS011;22898;52.102;5.776;2023-07-20T03:46:06;2.30;;;1.40;;
36989;SDS011;22898;52.102;5.776;2023-07-20T03:48:31;1.27;;;1.17;;
36989;SDS011;22898;52.102;5.776;2023-07-20T03:50:57;1.98;;;1.30;;
36989;SDS011;22898;52.102;5.776;2023-07-20T03:53:23;3.00;;;1.65;;
36989;SDS011;22898;52.102;5.776;2023-07-20T03:55:50;1.10;;;1.00;;
36989;SDS011;22898;52.102;5.776;2023-07-20T03:58:16;2.55;;;1.17;;
36989;SDS011;22898;52.102;5.776;2023-07-20T04:00:44;0.95;;;0.95;;
36989;SDS011;22898;52.102;5.776;2023-07-20T04:03:13;1.17;;;1.05;;
36989;SDS011;22898;52.102;5.776;2023-07-20T04:05:39;0.70;;;0.70;;
36989;SDS011;22898;52.102;5.776;2023-07-20T04:08:05;4.45;;;1.40;;
36989;SDS011;22898;52.102;5.776;2023-07-20T04:10:31;2.13;;;1.55;;
36989;SDS011;22898;52.102;5.776;2023-07-20T04:12:56;1.63;;;1.15;;
36989;SDS011;22898;52.102;5.776;2023-07-20T04:15:22;2.20;;;1.38;;
36989;SDS011;22898;52.102;5.776;2023-07-20T04:17:48;1.23;;;0.90;;
36989;SDS011;22898;52.102;5.776;2023-07-20T04:20:14;3.10;;;1.40;;
36989;SDS011;22898;52.102;5.776;2023-07-20T04:22:39;1.00;;;0.90;;
36989;SDS011;22898;52.102;5.776;2023-07-20T04:25:05;0.77;;;0.73;;
36989;SDS011;22898;52.102;5.776;2023-07-20T04:27:31;1.27;;;1.17;;
36989;SDS011;22898;52.102;5.776;2023-07-20T04:30:00;2.15;;;1.40;;
36989;SDS011;22898;52.102;5.776;2023-07-20T04:32:25;1.45;;;1.15;;
36989;SDS011;22898;52.102;5.776;2023-07-20T04:34:51;1.67;;;0.98;;
36989;SDS011;22898;52.102;5.776;2023-07-20T04:37:17;1.60;;;1.50;;
36989;SDS011;22898;52.102;5.776;2023-07-20T04:39:42;1.73;;;1.35;;
36989;SDS011;22898;52.102;5.776;2023-07-20T04:42:08;1.60;;;1.25;;
36989;SDS011;22898;52.102;5.776;2023-07-20T04:44:33;1.00;;;0.90;;
36989;SDS011;22898;52.102;5.776;2023-07-20T04:46:59;1.23;;;0.93;;
36989;SDS011;22898;52.102;5.776;2023-07-20T04:49:24;2.05;;;1.30;;
36989;SDS011;22898;52.102;5.776;2023-07-20T04:51:50;1.40;;;1.30;;
36989;SDS011;22898;52.102;5.776;2023-07-20T04:54:16;2.65;;;1.58;;
36989;SDS011;22898;52.102;5.776;2023-07-20T04:56:43;1.70;;;1.27;;
36989;SDS011;22898;52.102;5.776;2023-07-20T04:59:09;1.50;;;1.17;;
36989;SDS011;22898;52.102;5.776;2023-07-20T05:01:34;1.60;;;1.25;;
36989;SDS011;22898;52.102;5.776;2023-07-20T05:04:01;1.70;;;1.30;;
36989;SDS011;22898;52.102;5.776;2023-07-20T05:06:26;1.70;;;1.13;;
36989;SDS011;22898;52.102;5.776;2023-07-20T05:08:52;2.00;;;1.30;;
36989;SDS011;22898;52.102;5.776;2023-07-20T05:11:17;1.50;;;1.30;;
36989;SDS011;22898;52.102;5.776;2023-07-20T05:13:43;1.38;;;1.08;;
36989;SDS011;22898;52.102;5.776;2023-07-20T05:16:09;1.55;;;1.30;;
36989;SDS011;22898;52.102;5.776;2023-07-20T05:18:34;1.08;;;0.95;;
36989;SDS011;22898;52.102;5.776;2023-07-20T05:21:00;1.50;;;1.02;;
36989;SDS011;22898;52.102;5.776;2023-07-20T05:23:25;1.23;;;1.08;;
36989;SDS011;22898;52.102;5.776;2023-07-20T05:25:58;1.58;;;1.20;;
36989;SDS011;22898;52.102;5.776;2023-07-20T05:28:24;1.40;;;1.17;;
36989;SDS011;22898;52.102;5.776;2023-07-20T05:30:53;1.27;;;1.15;;
36989;SDS011;22898;52.102;5.776;2023-07-20T05:33:20;0.85;;;0.80;;
36989;SDS011;22898;52.102;5.776;2023-07-20T05:35:46;0.95;;;0.85;;
36989;SDS011;22898;52.102;5.776;2023-07-20T05:38:12;0.77;;;0.70;;
36989;SDS011;22898;52.102;5.776;2023-07-20T05:40:39;1.15;;;1.08;;
36989;SDS011;22898;52.102;5.776;2023-07-20T05:43:06;1.55;;;0.88;;
36989;SDS011;22898;52.102;5.776;2023-07-20T05:45:31;0.82;;;0.70;;
36989;SDS011;22898;52.102;5.776;2023-07-20T05:47:57;0.80;;;0.80;;
36989;SDS011;22898;52.102;5.776;2023-07-20T05:50:22;0.50;;;0.50;;
36989;SDS011;22898;52.102;5.776;2023-07-20T05:52:48;0.88;;;0.80;;
36989;SDS011;22898;52.102;5.776;2023-07-20T05:55:14;0.73;;;0.73;;
36989;SDS011;22898;52.102;5.776;2023-07-20T05:57:39;0.70;;;0.70;;
36989;SDS011;22898;52.102;5.776;2023-07-20T06:00:07;0.68;;;0.68;;
36989;SDS011;22898;52.102;5.776;2023-07-20T06:02:34;0.40;;;0.40;;
36989;SDS011;22898;52.102;5.776;2023-07-20T06:05:00;0.52;;;0.52;;
36989;SDS011;22898;52.102;5.776;2023-07-20T06:07:26;1.73;;;0.85;;
36989;SDS011;22898;52.102;5.776;2023-07-20T06:09:51;0.73;;;0.70;;
36989;SDS011;22898;52.102;5.776;2023-07-20T06:12:17;0.40;;;0.40;;
36989;SDS011;22898;52.102;5.776;2023-07-20T06:14:43;0.40;;;0.40;;
36989;SDS011;22898;52.102;5.776;2023-07-20T06:17:08;0.50;;;0.43;;
36989;SDS011;22898;52.102;5.776;2023-07-20T06:19:34;1.05;;;0.65;;
36989;SDS011;22898;52.102;5.776;2023-07-20T06:22:00;0.30;;;0.30;;
36989;SDS011;22898;52.102;5.776;2023-07-20T06:24:25;0.30;;;0.30;;
36989;SDS011;22898;52.102;5.776;2023-07-20T06:26:51;0.43;;;0.40;;
36989;SDS011;22898;52.102;5.776;2023-07-20T06:29:16;1.38;;;0.80;;
36989;SDS011;22898;52.102;5.776;2023-07-20T06:31:42;3.03;;;1.10;;
36989;SDS011;22898;52.102;5.776;2023-07-20T06:34:08;1.42;;;0.65;;
36989;SDS011;22898;52.102;5.776;2023-07-20T06:36:33;0.45;;;0.45;;
36989;SDS011;22898;52.102;5.776;2023-07-20T06:39:00;0.40;;;0.40;;
36989;SDS011;22898;52.102;5.776;2023-07-20T06:41:27;0.73;;;0.28;;
36989;SDS011;22898;52.102;5.776;2023-07-20T06:43:53;0.63;;;0.52;;
36989;SDS011;22898;52.102;5.776;2023-07-20T06:46:23;0.40;;;0.40;;
36989;SDS011;22898;52.102;5.776;2023-07-20T06:48:49;0.40;;;0.40;;
36989;SDS011;22898;52.102;5.776;2023-07-20T06:51:15;4.07;;;1.20;;
36989;SDS011;22898;52.102;5.776;2023-07-20T06:53:40;2.22;;;0.40;;
36989;SDS011;22898;52.102;5.776;2023-07-20T06:56:06;0.40;;;0.40;;
36989;SDS011;22898;52.102;5.776;2023-07-20T06:58:31;0.60;;;0.47;;
36989;SDS011;22898;52.102;5.776;2023-07-20T07:00:58;0.40;;;0.40;;
36989;SDS011;22898;52.102;5.776;2023-07-20T07:03:23;0.80;;;0.52;;
36989;SDS011;22898;52.102;5.776;2023-07-20T07:05:49;0.93;;;0.77;;
36989;SDS011;22898;52.102;5.776;2023-07-20T07:08:15;1.55;;;0.55;;
36989;SDS011;22898;52.102;5.776;2023-07-20T07:10:41;0.63;;;0.63;;
36989;SDS011;22898;52.102;5.776;2023-07-20T07:13:08;0.90;;;0.85;;
36989;SDS011;22898;52.102;5.776;2023-07-20T07:15:33;0.40;;;0.40;;
36989;SDS011;22898;52.102;5.776;2023-07-20T07:17:59;0.40;;;0.40;;
36989;SDS011;22898;52.102;5.776;2023-07-20T07:20:25;0.55;;;0.50;;
36989;SDS011;22898;52.102;5.776;2023-07-20T07:22:51;0.47;;;0.47;;
36989;SDS011;22898;52.102;5.776;2023-07-20T07:25:17;0.47;;;0.47;;
36989;SDS011;22898;52.102;5.776;2023-07-20T07:27:43;2.53;;;0.45;;
36989;SDS011;22898;52.102;5.776;2023-07-20T07:30:09;0.50;;;0.50;;
36989;SDS011;22898;52.102;5.776;2023-07-20T07:32:34;1.85;;;0.73;;
36989;SDS011;22898;52.102;5.776;2023-07-20T07:35:00;5.07;;;2.33;;
36989;SDS011;22898;52.102;5.776;2023-07-20T07:37:26;0.30;;;0.30;;
36989;SDS011;22898;52.102;5.776;2023-07-20T07:39:51;0.63;;;0.63;;
36989;SDS011;22898;52.102;5.776;2023-07-20T07:42:17;0.50;;;0.50;;
36989;SDS011;22898;52.102;5.776;2023-07-20T07:44:43;0.50;;;0.50;;
36989;SDS011;22898;52.102;5.776;2023-07-20T07:47:09;0.45;;;0.45;;
36989;SDS011;22898;52.102;5.776;2023-07-20T07:49:35;0.82;;;0.80;;
36989;SDS011;22898;52.102;5.776;2023-07-20T07:52:00;0.73;;;0.60;;
36989;SDS011;22898;52.102;5.776;2023-07-20T07:54:27;0.80;;;0.80;;
36989;SDS011;22898;52.102;5.776;2023-07-20T07:56:53;0.80;;;0.60;;
36989;SDS011;22898;52.102;5.776;2023-07-20T07:59:19;0.40;;;0.40;;
36989;SDS011;22898;52.102;5.776;2023-07-20T08:01:44;1.92;;;0.47;;
36989;SDS011;22898;52.102;5.776;2023-07-20T08:04:10;0.43;;;0.43;;
36989;SDS011;22898;52.102;5.776;2023-07-20T08:06:35;0.50;;;0.50;;
36989;SDS011;22898;52.102;5.776;2023-07-20T08:09:01;0.45;;;0.45;;
36989;SDS011;22898;52.102;5.776;2023-07-20T08:11:27;0.77;;;0.50;;
36989;SDS011;22898;52.102;5.776;2023-07-20T08:13:52;1.20;;;1.08;;
36989;SDS011;22898;52.102;5.776;2023-07-20T08:16:18;1.15;;;0.50;;
36989;SDS011;22898;52.102;5.776;2023-07-20T08:18:44;0.73;;;0.73;;
36989;SDS011;22898;52.102;5.776;2023-07-20T08:21:10;0.80;;;0.70;;
36989;SDS011;22898;52.102;5.776;2023-07-20T08:23:36;0.52;;;0.50;;
36989;SDS011;22898;52.102;5.776;2023-07-20T08:26:01;0.52;;;0.52;;
36989;SDS011;22898;52.102;5.776;2023-07-20T08:28:27;1.05;;;0.85;;
36989;SDS011;22898;52.102;5.776;2023-07-20T08:30:54;0.63;;;0.63;;
36989;SDS011;22898;52.102;5.776;2023-07-20T08:33:19;0.40;;;0.40;;
36989;SDS011;22898;52.102;5.776;2023-07-20T08:35:45;0.30;;;0.30;;
36989;SDS011;22898;52.102;5.776;2023-07-20T08:38:11;0.75;;;0.65;;
36989;SDS011;22898;52.102;5.776;2023-07-20T08:40:41;0.70;;;0.70;;
36989;SDS011;22898;52.102;5.776;2023-07-20T08:43:10;0.55;;;0.55;;
36989;SDS011;22898;52.102;5.776;2023-07-20T08:45:36;0.47;;;0.47;;
36989;SDS011;22898;52.102;5.776;2023-07-20T08:48:04;0.50;;;0.50;;
36989;SDS011;22898;52.102;5.776;2023-07-20T08:50:31;0.85;;;0.65;;
36989;SDS011;22898;52.102;5.776;2023-07-20T08:52:58;0.50;;;0.50;;
36989;SDS011;22898;52.102;5.776;2023-07-20T08:55:24;2.95;;;0.70;;
36989;SDS011;22898;52.102;5.776;2023-07-20T08:57:52;0.57;;;0.50;;
36989;SDS011;22898;52.102;5.776;2023-07-20T09:00:20;0.55;;;0.55;;
36989;SDS011;22898;52.102;5.776;2023-07-20T09:02:49;0.75;;;0.70;;
36989;SDS011;22898;52.102;5.776;2023-07-20T09:05:16;0.60;;;0.60;;
36989;SDS011;22898;52.102;5.776;2023-07-20T09:07:43;1.80;;;0.77;;
36989;SDS011;22898;52.102;5.776;2023-07-20T09:10:08;0.70;;;0.70;;
36989;SDS011;22898;52.102;5.776;2023-07-20T09:12:35;0.60;;;0.60;;
36989;SDS011;22898;52.102;5.776;2023-07-20T09:15:03;1.20;;;0.90;;
36989;SDS011;22898;52.102;5.776;2023-07-20T09:17:30;0.73;;;0.60;;
36989;SDS011;22898;52.102;5.776;2023-07-20T09:19:56;0.50;;;0.50;;
36989;SDS011;22898;52.102;5.776;2023-07-20T09:22:22;0.40;;;0.40;;
36989;SDS011;22898;52.102;5.776;2023-07-20T09:24:54;0.50;;;0.50;;
36989;SDS011;22898;52.102;5.776;2023-07-20T09:27:20;1.80;;;0.80;;
36989;SDS011;22898;52.102;5.776;2023-07-20T09:29:49;0.50;;;0.50;;
36989;SDS011;22898;52.102;5.776;2023-07-20T09:32:19;0.57;;;0.57;;
36989;SDS011;22898;52.102;5.776;2023-07-20T09:34:45;0.70;;;0.70;;
36989;SDS011;22898;52.102;5.776;2023-07-20T09:37:11;0.75;;;0.55;;
36989;SDS011;22898;52.102;5.776;2023-07-20T09:39:44;0.85;;;0.77;;
36989;SDS011;22898;52.102;5.776;2023-07-20T09:44:37;0.60;;;0.60;;
36989;SDS011;22898;52.102;5.776;2023-07-20T09:47:04;0.60;;;0.60;;
36989;SDS011;22898;52.102;5.776;2023-07-20T09:49:30;0.98;;;0.82;;
36989;SDS011;22898;52.102;5.776;2023-07-20T09:51:57;0.80;;;0.80;;
36989;SDS011;22898;52.102;5.776;2023-07-20T09:54:25;0.70;;;0.70;;
36989;SDS011;22898;52.102;5.776;2023-07-20T09:56:52;0.80;;;0.80;;
36989;SDS011;22898;52.102;5.776;2023-07-20T09:59:18;1.20;;;1.10;;
36989;SDS011;22898;52.102;5.776;2023-07-20T10:01:44;1.98;;;1.10;;
36989;SDS011;22898;52.102;5.776;2023-07-20T10:04:12;0.70;;;0.70;;
36989;SDS011;22898;52.102;5.776;2023-07-20T10:06:42;2.35;;;0.77;;
36989;SDS011;22898;52.102;5.776;2023-07-20T10:09:12;0.52;;;0.52;;
36989;SDS011;22898;52.102;5.776;2023-07-20T10:11:42;0.70;;;0.70;;
36989;SDS011;22898;52.102;5.776;2023-07-20T10:14:15;1.33;;;0.85;;
36989;SDS011;22898;52.102;5.776;2023-07-20T10:16:51;0.68;;;0.60;;
36989;SDS011;22898;52.102;5.776;2023-07-20T10:19:23;0.77;;;0.73;;
36989;SDS011;22898;52.102;5.776;2023-07-20T10:22:07;0.98;;;0.60;;
36989;SDS011;22898;52.102;5.776;2023-07-20T10:24:38;0.80;;;0.70;;
36989;SDS011;22898;52.102;5.776;2023-07-20T10:27:04;0.50;;;0.50;;
36989;SDS011;22898;52.102;5.776;2023-07-20T10:29:30;0.63;;;0.60;;
36989;SDS011;22898;52.102;5.776;2023-07-20T10:31:57;1.08;;;0.50;;
36989;SDS011;22898;52.102;5.776;2023-07-20T10:34:23;0.70;;;0.68;;
36989;SDS011;22898;52.102;5.776;2023-07-20T10:36:49;0.43;;;0.43;;
36989;SDS011;22898;52.102;5.776;2023-07-20T10:39:26;0.50;;;0.50;;
36989;SDS011;22898;52.102;5.776;2023-07-20T10:44:34;0.40;;;0.40;;
36989;SDS011;22898;52.102;5.776;2023-07-20T10:47:03;0.47;;;0.47;;
36989;SDS011;22898;52.102;5.776;2023-07-20T10:49:33;0.50;;;0.50;;
36989;SDS011;22898;52.102;5.776;2023-07-20T10:52:00;0.40;;;0.40;;
36989;SDS011;22898;52.102;5.776;2023-07-20T10:56:58;0.43;;;0.43;;
36989;SDS011;22898;52.102;5.776;2023-07-20T10:59:48;0.75;;;0.32;;
36989;SDS011;22898;52.102;5.776;2023-07-20T11:02:17;0.40;;;0.40;;
36989;SDS011;22898;52.102;5.776;2023-07-20T11:04:44;0.73;;;0.45;;
36989;SDS011;22898;52.102;5.776;2023-07-20T11:07:15;3.03;;;1.02;;
36989;SDS011;22898;52.102;5.776;2023-07-20T11:09:41;1.42;;;0.77;;
36989;SDS011;22898;52.102;5.776;2023-07-20T11:12:11;0.73;;;0.73;;
36989;SDS011;22898;52.102;5.776;2023-07-20T11:14:54;0.70;;;0.63;;
36989;SDS011;22898;52.102;5.776;2023-07-20T11:17:32;1.00;;;0.65;;
36989;SDS011;22898;52.102;5.776;2023-07-20T11:19:59;0.40;;;0.40;;
36989;SDS011;22898;52.102;5.776;2023-07-20T11:22:26;0.65;;;0.60;;
36989;SDS011;22898;52.102;5.776;2023-07-20T11:24:55;0.68;;;0.68;;
36989;SDS011;22898;52.102;5.776;2023-07-20T11:27:21;0.75;;;0.43;;
36989;SDS011;22898;52.102;5.776;2023-07-20T11:29:49;0.45;;;0.45;;
36989;SDS011;22898;52.102;5.776;2023-07-20T11:32:24;0.68;;;0.50;;
36989;SDS011;22898;52.102;5.776;2023-07-20T11:34:50;0.70;;;0.63;;
36989;SDS011;22898;52.102;5.776;2023-07-20T11:37:19;0.47;;;0.47;;
36989;SDS011;22898;52.102;5.776;2023-07-20T11:39:45;0.52;;;0.52;;
36989;SDS011;22898;52.102;5.776;2023-07-20T11:42:11;0.77;;;0.50;;
36989;SDS011;22898;52.102;5.776;2023-07-20T11:44:36;0.40;;;0.40;;
36989;SDS011;22898;52.102;5.776;2023-07-20T11:47:09;0.50;;;0.50;;
36989;SDS011;22898;52.102;5.776;2023-07-20T11:49:37;0.55;;;0.55;;
36989;SDS011;22898;52.102;5.776;2023-07-20T11:52:10;0.52;;;0.52;;
36989;SDS011;22898;52.102;5.776;2023-07-20T11:54:39;2.88;;;0.80;;
36989;SDS011;22898;52.102;5.776;2023-07-20T11:57:05;1.35;;;1.25;;
36989;SDS011;22898;52.102;5.776;2023-07-20T11:59:31;0.50;;;0.50;;
36989;SDS011;22898;52.102;5.776;2023-07-20T12:02:01;4.03;;;0.57;;
36989;SDS011;22898;52.102;5.776;2023-07-20T12:04:28;0.40;;;0.40;;
36989;SDS011;22898;52.102;5.776;2023-07-20T12:06:54;0.90;;;0.73;;
36989;SDS011;22898;52.102;5.776;2023-07-20T12:09:20;0.90;;;0.70;;
36989;SDS011;22898;52.102;5.776;2023-07-20T12:11:48;1.02;;;0.88;;
36989;SDS011;22898;52.102;5.776;2023-07-20T12:14:14;0.52;;;0.50;;
36989;SDS011;22898;52.102;5.776;2023-07-20T12:16:40;0.55;;;0.55;;
36989;SDS011;22898;52.102;5.776;2023-07-20T12:19:06;2.47;;;0.57;;
36989;SDS011;22898;52.102;5.776;2023-07-20T12:21:34;0.90;;;0.60;;
36989;SDS011;22898;52.102;5.776;2023-07-20T12:24:05;0.60;;;0.60;;
36989;SDS011;22898;52.102;5.776;2023-07-20T12:26:32;0.70;;;0.70;;
36989;SDS011;22898;52.102;5.776;2023-07-20T12:28:58;0.45;;;0.45;;
36989;SDS011;22898;52.102;5.776;2023-07-20T12:31:25;0.60;;;0.60;;
36989;SDS011;22898;52.102;5.776;2023-07-20T12:33:52;0.80;;;0.80;;
36989;SDS011;22898;52.102;5.776;2023-07-20T12:36:18;0.50;;;0.50;;
36989;SDS011;22898;52.102;5.776;2023-07-20T12:38:44;0.63;;;0.60;;
36989;SDS011;22898;52.102;5.776;2023-07-20T12:41:11;0.60;;;0.60;;
36989;SDS011;22898;52.102;5.776;2023-07-20T12:43:40;0.43;;;0.43;;
36989;SDS011;22898;52.102;5.776;2023-07-20T12:46:06;0.40;;;0.40;;
36989;SDS011;22898;52.102;5.776;2023-07-20T12:48:32;0.75;;;0.60;;
36989;SDS011;22898;52.102;5.776;2023-07-20T12:50:58;11.93;;;1.60;;
36989;SDS011;22898;52.102;5.776;2023-07-20T12:53:23;0.85;;;0.55;;
36989;SDS011;22898;52.102;5.776;2023-07-20T12:55:49;0.50;;;0.50;;
36989;SDS011;22898;52.102;5.776;2023-07-20T12:58:15;0.40;;;0.40;;
36989;SDS011;22898;52.102;5.776;2023-07-20T13:00:40;0.47;;;0.47;;
36989;SDS011;22898;52.102;5.776;2023-07-20T13:03:06;0.30;;;0.30;;
36989;SDS011;22898;52.102;5.776;2023-07-20T13:05:33;0.30;;;0.30;;
36989;SDS011;22898;52.102;5.776;2023-07-20T13:08:00;0.30;;;0.30;;
36989;SDS011;22898;52.102;5.776;2023-07-20T13:10:26;0.47;;;0.47;;
36989;SDS011;22898;52.102;5.776;2023-07-20T13:12:52;0.32;;;0.32;;
36989;SDS011;22898;52.102;5.776;2023-07-20T13:15:18;0.70;;;0.50;;
36989;SDS011;22898;52.102;5.776;2023-07-20T13:17:44;0.60;;;0.50;;
36989;SDS011;22898;52.102;5.776;2023-07-20T13:20:10;2.63;;;0.57;;
36989;SDS011;22898;52.102;5.776;2023-07-20T13:22:37;0.43;;;0.43;;
36989;SDS011;22898;52.102;5.776;2023-07-20T13:25:05;0.63;;;0.60;;
36989;SDS011;22898;52.102;5.776;2023-07-20T13:27:32;0.30;;;0.30;;
36989;SDS011;22898;52.102;5.776;2023-07-20T13:29:59;0.60;;;0.60;;
36989;SDS011;22898;52.102;5.776;2023-07-20T13:32:25;0.43;;;0.43;;
36989;SDS011;22898;52.102;5.776;2023-07-20T13:34:52;0.30;;;0.30;;
36989;SDS011;22898;52.102;5.776;2023-07-20T13:37:17;0.30;;;0.30;;
36989;SDS011;22898;52.102;5.776;2023-07-20T13:39:43;0.82;;;0.70;;
36989;SDS011;22898;52.102;5.776;2023-07-20T13:42:09;0.38;;;0.38;;
36989;SDS011;22898;52.102;5.776;2023-07-20T13:44:37;0.40;;;0.40;;
36989;SDS011;22898;52.102;5.776;2023-07-20T13:47:03;0.40;;;0.40;;
36989;SDS011;22898;52.102;5.776;2023-07-20T13:49:30;0.93;;;0.60;;
36989;SDS011;22898;52.102;5.776;2023-07-20T13:51:57;1.60;;;0.50;;
36989;SDS011;22898;52.102;5.776;2023-07-20T13:54:23;0.55;;;0.55;;
36989;SDS011;22898;52.102;5.776;2023-07-20T13:56:49;7.93;;;0.75;;
36989;SDS011;22898;52.102;5.776;2023-07-20T13:59:15;0.70;;;0.70;;
36989;SDS011;22898;52.102;5.776;2023-07-20T14:01:40;0.60;;;0.60;;
36989;SDS011;22898;52.102;5.776;2023-07-20T14:04:06;0.40;;;0.40;;
36989;SDS011;22898;52.102;5.776;2023-07-20T14:06:34;0.50;;;0.50;;
36989;SDS011;22898;52.102;5.776;2023-07-20T14:09:00;1.13;;;0.50;;
36989;SDS011;22898;52.102;5.776;2023-07-20T14:11:27;0.60;;;0.60;;
36989;SDS011;22898;52.102;5.776;2023-07-20T14:13:52;0.50;;;0.50;;
36989;SDS011;22898;52.102;5.776;2023-07-20T14:16:19;1.15;;;0.57;;
36989;SDS011;22898;52.102;5.776;2023-07-20T14:18:46;0.60;;;0.60;;
36989;SDS011;22898;52.102;5.776;2023-07-20T14:21:13;1.00;;;0.60;;
36989;SDS011;22898;52.102;5.776;2023-07-20T14:23:39;0.77;;;0.60;;
36989;SDS011;22898;52.102;5.776;2023-07-20T14:26:05;0.43;;;0.43;;
36989;SDS011;22898;52.102;5.776;2023-07-20T14:28:32;0.50;;;0.50;;
36989;SDS011;22898;52.102;5.776;2023-07-20T14:30:58;0.40;;;0.40;;
36989;SDS011;22898;52.102;5.776;2023-07-20T14:33:23;0.47;;;0.47;;
36989;SDS011;22898;52.102;5.776;2023-07-20T14:35:49;0.90;;;0.57;;
36989;SDS011;22898;52.102;5.776;2023-07-20T14:38:15;0.75;;;0.75;;
36989;SDS011;22898;52.102;5.776;2023-07-20T14:40:40;0.68;;;0.65;;
36989;SDS011;22898;52.102;5.776;2023-07-20T14:43:06;0.50;;;0.50;;
36989;SDS011;22898;52.102;5.776;2023-07-20T14:45:32;0.40;;;0.40;;
36989;SDS011;22898;52.102;5.776;2023-07-20T14:47:57;0.50;;;0.50;;
36989;SDS011;22898;52.102;5.776;2023-07-20T14:50:23;1.35;;;0.60;;
36989;SDS011;22898;52.102;5.776;2023-07-20T14:52:49;0.38;;;0.38;;
36989;SDS011;22898;52.102;5.776;2023-07-20T14:55:14;0.80;;;0.70;;
36989;SDS011;22898;52.102;5.776;2023-07-20T14:57:40;2.85;;;0.50;;
36989;SDS011;22898;52.102;5.776;2023-07-20T15:00:06;0.73;;;0.60;;
36989;SDS011;22898;52.102;5.776;2023-07-20T15:02:35;0.70;;;0.70;;
36989;SDS011;22898;52.102;5.776;2023-07-20T15:05:06;1.15;;;0.80;;